createdAt,value
2023-03-29T00:00:12.989Z,11.60
2023-03-29T00:02:41.590Z,11.61
2023-03-29T00:05:12.419Z,11.61
2023-03-29T00:07:41.286Z,11.64
2023-03-29T00:10:11.482Z,11.65
2023-03-29T00:12:42.041Z,11.65
2023-03-29T00:15:10.655Z,11.62
2023-03-29T00:17:38.745Z,11.60
2023-03-29T00:20:10.351Z,11.62
2023-03-29T00:22:39.863Z,11.67
2023-03-29T00:25:08.442Z,11.68
2023-03-29T00:27:36.669Z,11.64
2023-03-29T00:30:07.886Z,11.63
2023-03-29T00:32:36.268Z,11.58
2023-03-29T00:35:05.300Z,11.55
2023-03-29T00:37:33.434Z,11.54
2023-03-29T00:40:01.871Z,11.57
2023-03-29T00:42:29.937Z,11.61
2023-03-29T00:45:01.619Z,11.60
2023-03-29T00:47:36.052Z,11.55
2023-03-29T00:50:09.826Z,11.49
2023-03-29T00:52:40.190Z,11.45
2023-03-29T00:55:13.316Z,11.40
2023-03-29T00:57:46.838Z,11.35
2023-03-29T01:00:20.984Z,11.39
2023-03-29T01:02:55.268Z,11.44
2023-03-29T01:05:29.405Z,11.47
2023-03-29T01:08:01.365Z,11.48
2023-03-29T01:10:36.261Z,11.47
2023-03-29T01:13:07.865Z,11.47
2023-03-29T01:15:36.268Z,11.45
2023-03-29T01:18:06.559Z,11.41
2023-03-29T01:20:49.093Z,11.46
2023-03-29T01:23:32.680Z,11.46
2023-03-29T01:26:12.690Z,11.44
2023-03-29T01:28:46.944Z,11.44
2023-03-29T01:31:19.810Z,11.46
2023-03-29T01:33:53.308Z,11.39
2023-03-29T01:36:28.286Z,11.28
2023-03-29T01:38:59.833Z,11.24
2023-03-29T01:41:37.730Z,11.16
2023-03-29T01:44:10.293Z,11.06
2023-03-29T01:46:46.776Z,11.00
2023-03-29T01:49:23.632Z,10.97
2023-03-29T01:51:56.742Z,10.93
2023-03-29T01:54:29.608Z,10.84
2023-03-29T01:56:59.648Z,10.80
2023-03-29T01:59:32.489Z,10.80
2023-03-29T02:02:03.492Z,10.79
2023-03-29T02:04:35.425Z,10.74
2023-03-29T02:07:06.029Z,10.64
2023-03-29T02:09:36.235Z,10.59
2023-03-29T02:12:05.854Z,10.57
2023-03-29T02:14:35.753Z,10.52
2023-03-29T02:17:17.079Z,10.43
2023-03-29T02:19:51.130Z,10.37
2023-03-29T02:22:25.561Z,10.35
2023-03-29T02:24:59.264Z,10.32
2023-03-29T02:27:29.179Z,10.29
2023-03-29T02:29:59.463Z,10.24
2023-03-29T02:32:31.494Z,10.21
2023-03-29T02:35:03.347Z,10.21
2023-03-29T02:37:34.569Z,10.20
2023-03-29T02:40:12.632Z,10.22
2023-03-29T02:42:41.650Z,10.26
2023-03-29T02:45:14.149Z,10.20
2023-03-29T02:47:46.523Z,10.20
2023-03-29T02:50:14.676Z,10.20
2023-03-29T02:52:47.315Z,10.23
2023-03-29T02:55:18.873Z,10.22
2023-03-29T02:57:46.876Z,10.15
2023-03-29T03:00:20.257Z,10.13
2023-03-29T03:02:50.963Z,10.10
2023-03-29T03:05:19.522Z,10.00
2023-03-29T03:07:47.728Z,9.94
2023-03-29T03:10:16.086Z,9.92
2023-03-29T03:12:44.097Z,10.02
2023-03-29T03:15:13.515Z,10.05
2023-03-29T03:17:43.058Z,10.01
2023-03-29T03:20:13.929Z,9.99
2023-03-29T03:22:43.273Z,10.00
2023-03-29T03:25:12.004Z,10.00
2023-03-29T03:27:40.257Z,10.03
2023-03-29T03:30:09.966Z,10.08
2023-03-29T03:32:38.617Z,10.09
2023-03-29T03:35:09.755Z,10.09
2023-03-29T03:37:38.392Z,10.08
2023-03-29T03:40:12.081Z,10.08
2023-03-29T03:42:40.266Z,10.06
2023-03-29T03:45:10.709Z,10.11
2023-03-29T03:47:39.218Z,10.12
2023-03-29T03:50:10.235Z,10.08
2023-03-29T03:52:38.396Z,10.07
2023-03-29T03:55:06.962Z,10.07
2023-03-29T03:57:37.485Z,10.06
2023-03-29T04:00:19.346Z,10.03
2023-03-29T04:02:49.037Z,10.00
2023-03-29T04:05:20.030Z,10.02
2023-03-29T04:07:48.173Z,10.09
2023-03-29T04:10:16.598Z,10.15
2023-03-29T04:12:44.674Z,10.20
2023-03-29T04:15:12.755Z,10.25
2023-03-29T04:17:40.888Z,10.25
2023-03-29T04:20:12.661Z,10.24
2023-03-29T04:22:42.359Z,10.21
2023-03-29T04:25:11.759Z,10.14
2023-03-29T04:27:40.040Z,10.06
2023-03-29T04:30:09.579Z,9.98
2023-03-29T04:32:37.893Z,9.90
2023-03-29T04:35:06.683Z,9.85
2023-03-29T04:37:35.162Z,9.81
2023-03-29T04:40:09.086Z,9.76
2023-03-29T04:42:37.589Z,9.80
2023-03-29T04:45:07.270Z,9.81
2023-03-29T04:47:36.692Z,9.80
2023-03-29T04:50:05.122Z,9.81
2023-03-29T04:52:33.491Z,9.83
2023-03-29T04:55:02.198Z,9.85
2023-03-29T04:57:31.627Z,9.79
2023-03-29T04:59:59.777Z,9.78
2023-03-29T05:02:27.855Z,9.71
2023-03-29T05:04:56.890Z,9.69
2023-03-29T05:07:24.923Z,9.61
2023-03-29T05:09:53.455Z,9.54
2023-03-29T05:12:21.551Z,9.53
2023-03-29T05:14:50.903Z,9.54
2023-03-29T05:17:18.876Z,9.61
2023-03-29T05:19:46.913Z,9.67
2023-03-29T05:22:15.326Z,9.68
2023-03-29T05:24:43.338Z,9.68
2023-03-29T05:27:11.909Z,9.69
2023-03-29T05:29:40.128Z,9.71
2023-03-29T05:32:09.966Z,9.67
2023-03-29T05:34:38.022Z,9.60
2023-03-29T05:37:06.466Z,9.59
2023-03-29T05:39:37.546Z,9.65
2023-03-29T05:42:06.052Z,9.66
2023-03-29T05:44:34.411Z,9.67
2023-03-29T05:47:02.462Z,9.58
2023-03-29T05:49:31.945Z,9.46
2023-03-29T05:52:00.063Z,9.39
2023-03-29T05:54:28.343Z,9.35
2023-03-29T05:56:56.372Z,9.36
2023-03-29T05:59:24.557Z,9.36
2023-03-29T06:01:53.043Z,9.35
2023-03-29T06:04:21.419Z,9.39
2023-03-29T06:06:50.843Z,9.42
2023-03-29T06:09:19.208Z,9.52
2023-03-29T06:11:47.796Z,9.60
2023-03-29T06:14:16.395Z,9.69
2023-03-29T06:16:45.152Z,9.74
2023-03-29T06:19:13.232Z,9.66
2023-03-29T06:21:41.321Z,9.62
2023-03-29T06:24:10.869Z,9.65
2023-03-29T06:26:38.879Z,9.64
2023-03-29T06:29:06.857Z,9.62
2023-03-29T06:31:36.259Z,9.65
2023-03-29T06:34:04.876Z,9.71
2023-03-29T06:36:34.451Z,9.76
2023-03-29T06:39:03.974Z,9.80
2023-03-29T06:41:33.373Z,9.80
2023-03-29T06:44:01.295Z,9.74
2023-03-29T06:46:29.363Z,9.70
2023-03-29T06:49:01.194Z,9.59
2023-03-29T06:51:29.428Z,9.53
2023-03-29T06:53:57.413Z,9.53
2023-03-29T06:56:25.366Z,9.61
2023-03-29T06:58:54.708Z,9.62
2023-03-29T07:01:22.996Z,9.64
2023-03-29T07:03:51.176Z,9.64
2023-03-29T07:06:20.635Z,9.69
2023-03-29T07:08:52.400Z,9.76
2023-03-29T07:11:20.757Z,9.83
2023-03-29T07:13:49.189Z,9.91
2023-03-29T07:16:19.474Z,9.96
2023-03-29T07:18:47.634Z,10.03
2023-03-29T07:21:15.752Z,10.12
2023-03-29T07:23:44.082Z,10.24
2023-03-29T07:26:12.154Z,10.24
2023-03-29T07:28:40.489Z,10.24
2023-03-29T07:31:11.218Z,10.30
2023-03-29T07:33:40.912Z,10.43
2023-03-29T07:36:09.971Z,10.46
2023-03-29T07:38:38.676Z,10.37
2023-03-29T07:41:08.266Z,10.33
2023-03-29T07:43:36.564Z,10.32
2023-03-29T07:46:06.415Z,10.27
2023-03-29T07:48:36.460Z,10.18
2023-03-29T07:51:06.428Z,10.09
2023-03-29T07:53:34.474Z,10.06
2023-03-29T07:56:02.444Z,10.07
2023-03-29T07:58:30.776Z,10.12
2023-03-29T08:01:00.817Z,10.16
2023-03-29T08:03:29.433Z,10.22
2023-03-29T08:05:57.574Z,10.32
2023-03-29T08:08:26.953Z,10.41
2023-03-29T08:10:55.165Z,10.52
2023-03-29T08:13:23.446Z,10.57
2023-03-29T08:15:51.631Z,10.64
2023-03-29T08:18:19.633Z,10.70
2023-03-29T08:20:47.694Z,10.65
2023-03-29T08:23:15.857Z,10.67
2023-03-29T08:25:47.246Z,10.72
2023-03-29T08:28:15.267Z,10.82
2023-03-29T08:30:43.287Z,10.78
2023-03-29T08:33:11.448Z,10.68
2023-03-29T08:35:39.640Z,10.62
2023-03-29T08:38:08.366Z,10.69
2023-03-29T08:40:36.837Z,10.73
2023-03-29T08:43:26.009Z,10.71
2023-03-29T08:46:08.633Z,10.79
2023-03-29T08:48:42.374Z,10.95
2023-03-29T08:51:22.970Z,11.05
2023-03-29T08:53:54.553Z,11.08
2023-03-29T08:56:26.302Z,11.14
2023-03-29T08:58:57.862Z,11.25
2023-03-29T09:01:29.863Z,11.31
2023-03-29T09:04:07.714Z,11.31
2023-03-29T09:06:36.082Z,11.32
2023-03-29T09:09:04.186Z,11.26
2023-03-29T09:12:01.923Z,11.27
2023-03-29T09:14:47.438Z,11.26
2023-03-29T09:17:30.445Z,11.22
2023-03-29T09:20:06.522Z,11.28
2023-03-29T09:22:43.530Z,11.32
2023-03-29T09:25:21.615Z,11.39
2023-03-29T09:27:52.683Z,11.47
2023-03-29T09:30:27.644Z,11.56
2023-03-29T09:32:58.631Z,11.62
2023-03-29T09:35:32.483Z,11.68
2023-03-29T09:38:00.782Z,11.89
2023-03-29T09:40:35.330Z,12.16
2023-03-29T09:43:05.700Z,12.23
2023-03-29T09:45:38.557Z,12.35
2023-03-29T09:48:12.644Z,12.44
2023-03-29T09:50:43.350Z,12.55
2023-03-29T09:53:11.533Z,12.82
2023-03-29T09:55:40.942Z,13.13
2023-03-29T09:58:15.671Z,13.40
2023-03-29T10:00:46.057Z,13.48
2023-03-29T10:03:19.809Z,13.50
2023-03-29T10:05:51.745Z,13.68
2023-03-29T10:08:23.797Z,13.83
2023-03-29T10:10:52.315Z,13.74
2023-03-29T10:13:24.507Z,13.70
2023-03-29T10:16:03.760Z,13.72
2023-03-29T10:18:32.955Z,13.69
2023-03-29T10:21:02.902Z,13.65
2023-03-29T10:23:33.166Z,13.59
2023-03-29T10:26:04.243Z,13.56
2023-03-29T10:28:34.066Z,13.54
2023-03-29T10:31:06.283Z,13.46
2023-03-29T10:33:36.238Z,13.51
2023-03-29T10:36:08.088Z,13.70
2023-03-29T10:38:37.655Z,13.67
2023-03-29T10:41:10.182Z,13.61
2023-03-29T10:43:40.692Z,13.47
2023-03-29T10:46:13.334Z,13.37
2023-03-29T10:48:47.271Z,13.35
2023-03-29T10:51:15.680Z,13.31
2023-03-29T10:53:44.212Z,13.30
2023-03-29T10:56:30.779Z,13.29
2023-03-29T10:59:16.450Z,13.40
2023-03-29T11:01:59.121Z,13.38
2023-03-29T11:04:38.578Z,13.37
2023-03-29T11:07:24.011Z,13.36
2023-03-29T11:09:58.870Z,13.43
2023-03-29T11:12:35.453Z,13.55
2023-03-29T11:15:19.046Z,13.77
2023-03-29T11:18:01.938Z,13.90
2023-03-29T11:20:39.980Z,13.81
2023-03-29T11:23:28.378Z,13.73
2023-03-29T11:26:09.773Z,13.76
2023-03-29T11:28:45.317Z,13.84
2023-03-29T11:31:25.177Z,13.79
2023-03-29T11:34:06.829Z,13.75
2023-03-29T11:36:44.617Z,13.81
2023-03-29T11:39:24.810Z,13.87
2023-03-29T11:41:58.313Z,13.94
2023-03-29T11:44:31.037Z,13.98
2023-03-29T11:47:02.653Z,13.94
2023-03-29T11:49:37.477Z,13.90
2023-03-29T11:52:10.862Z,13.85
2023-03-29T11:54:44.896Z,13.81
2023-03-29T11:57:20.130Z,13.85
2023-03-29T11:59:54.269Z,13.93
2023-03-29T12:02:30.094Z,13.95
2023-03-29T12:05:02.497Z,13.93
2023-03-29T12:07:36.870Z,13.92
2023-03-29T12:10:09.882Z,13.88
2023-03-29T12:12:44.515Z,13.92
2023-03-29T12:15:20.244Z,14.04
2023-03-29T12:17:52.792Z,14.02
2023-03-29T12:20:27.154Z,14.06
2023-03-29T12:22:55.861Z,14.08
2023-03-29T12:25:29.486Z,14.18
2023-03-29T12:28:19.505Z,14.16
2023-03-29T12:31:07.472Z,14.11
2023-03-29T12:33:47.112Z,14.17
2023-03-29T12:36:31.907Z,14.18
2023-03-29T12:39:00.493Z,14.20
2023-03-29T12:41:29.553Z,14.12
2023-03-29T12:44:03.599Z,13.95
2023-03-29T12:46:35.482Z,13.77
2023-03-29T12:49:11.473Z,13.66
2023-03-29T12:51:44.830Z,13.65
2023-03-29T12:54:16.690Z,13.62
2023-03-29T12:56:58.405Z,13.54
2023-03-29T12:59:35.049Z,13.39
2023-03-29T13:02:08.715Z,13.28
2023-03-29T13:04:52.323Z,13.14
2023-03-29T13:07:33.313Z,13.05
2023-03-29T13:10:03.723Z,12.97
2023-03-29T13:12:40.040Z,12.90
2023-03-29T13:15:23.727Z,12.87
2023-03-29T13:18:02.010Z,12.88
2023-03-29T13:20:46.540Z,12.91
2023-03-29T13:23:31.850Z,12.99
2023-03-29T13:26:19.820Z,13.07
2023-03-29T13:29:03.636Z,13.19
2023-03-29T13:31:39.389Z,13.23
2023-03-29T13:34:21.206Z,13.32
2023-03-29T13:36:59.825Z,13.35
2023-03-29T13:39:33.134Z,13.40
2023-03-29T13:42:19.953Z,13.40
2023-03-29T13:44:49.247Z,13.38
2023-03-29T13:47:38.243Z,13.36
2023-03-29T13:50:13.513Z,13.44
2023-03-29T13:52:44.593Z,13.58
2023-03-29T13:55:21.112Z,13.75
2023-03-29T13:57:55.644Z,13.93
2023-03-29T14:00:29.014Z,14.03
2023-03-29T14:03:01.519Z,14.04
2023-03-29T14:05:33.002Z,14.03
2023-03-29T14:08:09.060Z,14.04
2023-03-29T14:10:42.000Z,14.04
2023-03-29T14:13:13.858Z,14.06
2023-03-29T14:15:48.092Z,14.10
2023-03-29T14:18:19.798Z,14.11
2023-03-29T14:20:50.362Z,14.13
2023-03-29T14:23:22.445Z,14.22
2023-03-29T14:25:52.147Z,14.29
2023-03-29T14:28:21.914Z,14.28
2023-03-29T14:30:52.598Z,14.27
2023-03-29T14:33:32.521Z,14.30
2023-03-29T14:36:04.472Z,14.34
2023-03-29T14:38:33.388Z,14.28
2023-03-29T14:41:03.756Z,14.26
2023-03-29T14:43:32.723Z,14.31
2023-03-29T14:46:08.802Z,14.37
2023-03-29T14:48:37.862Z,14.33
2023-03-29T14:51:06.991Z,14.34
2023-03-29T14:53:38.180Z,14.33
2023-03-29T14:56:11.290Z,14.32
2023-03-29T14:58:40.033Z,14.35
2023-03-29T15:01:15.816Z,14.43
2023-03-29T15:03:45.006Z,14.48
2023-03-29T15:06:14.159Z,14.50
2023-03-29T15:08:54.108Z,14.48
2023-03-29T15:11:32.115Z,14.47
2023-03-29T15:14:03.735Z,14.50
2023-03-29T15:16:32.980Z,14.55
2023-03-29T15:19:03.120Z,14.59
2023-03-29T15:21:34.386Z,14.61
2023-03-29T15:24:04.757Z,14.57
2023-03-29T15:26:36.144Z,14.49
2023-03-29T15:29:09.124Z,14.38
2023-03-29T15:31:38.802Z,14.25
2023-03-29T15:34:09.584Z,14.11
2023-03-29T15:36:42.573Z,14.05
2023-03-29T15:39:13.533Z,14.00
2023-03-29T15:41:43.623Z,14.05
2023-03-29T15:44:12.178Z,14.11
2023-03-29T15:46:40.232Z,14.16
2023-03-29T15:49:12.003Z,14.22
2023-03-29T15:51:40.674Z,14.29
2023-03-29T15:54:09.324Z,14.30
2023-03-29T15:56:43.825Z,14.32
2023-03-29T15:59:13.828Z,14.37
2023-03-29T16:01:42.028Z,14.49
2023-03-29T16:04:14.143Z,14.60
2023-03-29T16:06:42.416Z,14.64
2023-03-29T16:09:12.057Z,14.59
2023-03-29T16:11:41.294Z,14.50
2023-03-29T16:14:20.136Z,14.48
2023-03-29T16:16:48.523Z,14.53
2023-03-29T16:19:16.752Z,14.62
2023-03-29T16:21:45.033Z,14.71
2023-03-29T16:24:15.531Z,14.76
2023-03-29T16:26:44.110Z,14.73
2023-03-29T16:29:12.200Z,14.68
2023-03-29T16:31:41.714Z,14.63
2023-03-29T16:34:11.232Z,14.59
2023-03-29T16:36:39.366Z,14.56
2023-03-29T16:39:08.175Z,14.53
2023-03-29T16:41:36.986Z,14.50
2023-03-29T16:44:05.783Z,14.52
2023-03-29T16:46:33.856Z,14.54
2023-03-29T16:49:03.399Z,14.58
2023-03-29T16:51:31.459Z,14.60
2023-03-29T16:54:00.783Z,14.63
2023-03-29T16:56:29.039Z,14.65
2023-03-29T16:58:57.123Z,14.61
2023-03-29T17:01:25.486Z,14.55
2023-03-29T17:03:53.704Z,14.47
2023-03-29T17:06:23.123Z,14.43
2023-03-29T17:08:51.743Z,14.38
2023-03-29T17:11:23.198Z,14.32
2023-03-29T17:13:51.416Z,14.34
2023-03-29T17:16:19.499Z,14.34
2023-03-29T17:18:47.742Z,14.33
2023-03-29T17:21:15.904Z,14.27
2023-03-29T17:23:45.411Z,14.20
2023-03-29T17:26:13.508Z,14.17
2023-03-29T17:28:41.701Z,14.18
2023-03-29T17:31:09.871Z,14.15
2023-03-29T17:33:38.478Z,14.05
2023-03-29T17:36:08.067Z,13.97
2023-03-29T17:38:38.144Z,13.91
2023-03-29T17:41:08.345Z,13.94
2023-03-29T17:43:36.487Z,13.96
2023-03-29T17:46:04.718Z,13.95
2023-03-29T17:48:33.934Z,13.93
2023-03-29T17:51:02.004Z,13.87
2023-03-29T17:53:30.119Z,13.82
2023-03-29T17:55:58.167Z,13.76
2023-03-29T17:58:27.614Z,13.78
2023-03-29T18:00:55.766Z,13.85
2023-03-29T18:03:23.903Z,13.86
2023-03-29T18:05:52.011Z,13.78
2023-03-29T18:08:20.015Z,13.70
2023-03-29T18:10:48.081Z,13.66
2023-03-29T18:13:16.151Z,13.60
2023-03-29T18:15:47.576Z,13.57
2023-03-29T18:18:15.976Z,13.56
2023-03-29T18:20:46.097Z,13.61
2023-03-29T18:23:14.317Z,13.63
2023-03-29T18:25:42.369Z,13.63
2023-03-29T18:28:10.799Z,13.58
2023-03-29T18:30:38.832Z,13.60
2023-03-29T18:33:08.607Z,13.56
2023-03-29T18:35:36.911Z,13.54
2023-03-29T18:38:05.156Z,13.54
2023-03-29T18:40:34.783Z,13.55
2023-03-29T18:43:03.255Z,13.56
2023-03-29T18:45:31.658Z,13.52
2023-03-29T18:47:59.747Z,13.49
2023-03-29T18:50:29.505Z,13.46
2023-03-29T18:52:57.610Z,13.46
2023-03-29T18:55:25.676Z,13.46
2023-03-29T18:57:53.814Z,13.45
2023-03-29T19:00:21.827Z,13.47
2023-03-29T19:02:50.505Z,13.51
2023-03-29T19:05:19.389Z,13.55
2023-03-29T19:07:48.874Z,13.52
2023-03-29T19:10:16.987Z,13.49
2023-03-29T19:12:45.155Z,13.49
2023-03-29T19:15:13.822Z,13.49
2023-03-29T19:17:42.014Z,13.50
2023-03-29T19:20:11.344Z,13.50
2023-03-29T19:22:40.260Z,13.52
2023-03-29T19:25:10.643Z,13.53
2023-03-29T19:27:39.059Z,13.55
2023-03-29T19:30:09.205Z,13.56
2023-03-29T19:32:37.351Z,13.56
2023-03-29T19:35:06.020Z,13.54
2023-03-29T19:37:34.118Z,13.54
2023-03-29T19:40:02.187Z,13.58
2023-03-29T19:42:31.686Z,13.64
2023-03-29T19:44:59.658Z,13.69
2023-03-29T19:47:28.206Z,13.74
2023-03-29T19:49:57.962Z,13.75
2023-03-29T19:52:27.830Z,13.76
2023-03-29T19:54:55.989Z,13.78
2023-03-29T19:57:24.990Z,13.83
2023-03-29T19:59:54.562Z,13.84
2023-03-29T20:02:22.630Z,13.82
2023-03-29T20:04:50.824Z,13.82
2023-03-29T20:07:18.836Z,13.83
2023-03-29T20:09:47.471Z,13.84
2023-03-29T20:12:15.508Z,13.78
2023-03-29T20:14:43.651Z,13.77
2023-03-29T20:17:13.132Z,13.77
2023-03-29T20:19:44.167Z,13.77
2023-03-29T20:22:12.782Z,13.72
2023-03-29T20:24:41.002Z,13.70
2023-03-29T20:27:09.055Z,13.70
2023-03-29T20:29:37.399Z,13.67
2023-03-29T20:32:05.696Z,13.63
2023-03-29T20:34:35.349Z,13.64
2023-03-29T20:37:03.503Z,13.65
2023-03-29T20:39:31.856Z,13.64
2023-03-29T20:42:00.708Z,13.61
2023-03-29T20:44:28.839Z,13.60
2023-03-29T20:47:03.980Z,13.61
2023-03-29T20:49:37.617Z,13.60
2023-03-29T20:52:10.791Z,13.59
2023-03-29T20:54:39.441Z,13.58
2023-03-29T20:57:08.077Z,13.59
2023-03-29T20:59:36.309Z,13.61
2023-03-29T21:02:04.387Z,13.63
2023-03-29T21:04:33.826Z,13.64
2023-03-29T21:07:03.286Z,13.63
2023-03-29T21:09:34.337Z,13.64
2023-03-29T21:12:02.422Z,13.64
2023-03-29T21:14:33.182Z,13.65
2023-03-29T21:17:01.534Z,13.60
2023-03-29T21:19:29.808Z,13.58
2023-03-29T21:21:58.135Z,13.56
2023-03-29T21:24:26.275Z,13.50
2023-03-29T21:26:55.855Z,13.49
2023-03-29T21:29:24.279Z,13.48
2023-03-29T21:31:52.335Z,13.44
2023-03-29T21:34:20.400Z,13.40
2023-03-29T21:36:48.466Z,13.38
2023-03-29T21:39:16.523Z,13.38
2023-03-29T21:41:44.579Z,13.35
2023-03-29T21:44:14.003Z,13.35
2023-03-29T21:46:42.112Z,13.37
2023-03-29T21:49:10.636Z,13.37
2023-03-29T21:51:38.691Z,13.37
2023-03-29T21:54:06.909Z,13.39
2023-03-29T21:56:34.902Z,13.42
2023-03-29T21:59:03.023Z,13.43
2023-03-29T22:01:32.583Z,13.46
2023-03-29T22:04:00.618Z,13.46
2023-03-29T22:06:28.642Z,13.45
2023-03-29T22:08:56.696Z,13.44
2023-03-29T22:11:25.718Z,13.44
2023-03-29T22:13:53.779Z,13.43
2023-03-29T22:16:21.942Z,13.47
2023-03-29T22:18:52.619Z,13.51
2023-03-29T22:21:23.618Z,13.53
2023-03-29T22:23:53.227Z,13.51
2023-03-29T22:26:23.420Z,13.51
2023-03-29T22:28:51.986Z,13.49
2023-03-29T22:31:22.871Z,13.41
2023-03-29T22:33:52.633Z,13.34
2023-03-29T22:36:22.518Z,13.27
2023-03-29T22:38:52.057Z,13.26
2023-03-29T22:41:22.710Z,13.26
2023-03-29T22:43:52.248Z,13.29
2023-03-29T22:46:21.117Z,13.32
2023-03-29T22:48:49.497Z,13.35
2023-03-29T22:51:18.933Z,13.34
2023-03-29T22:53:47.830Z,13.34
2023-03-29T22:56:16.320Z,13.32
2023-03-29T22:58:45.124Z,13.31
2023-03-29T23:01:13.659Z,13.30
2023-03-29T23:03:41.775Z,13.29
2023-03-29T23:06:10.128Z,13.23
2023-03-29T23:08:39.557Z,13.17
2023-03-29T23:11:07.756Z,13.11
2023-03-29T23:13:35.933Z,13.10
2023-03-29T23:16:04.982Z,13.06
2023-03-29T23:18:35.022Z,13.04
2023-03-29T23:21:06.160Z,13.01
2023-03-29T23:23:34.732Z,12.98
2023-03-29T23:26:04.296Z,12.95
2023-03-29T23:28:34.805Z,12.96
2023-03-29T23:31:05.468Z,12.96
2023-03-29T23:33:35.883Z,12.98
2023-03-29T23:36:05.946Z,12.97
2023-03-29T23:38:35.496Z,12.96
2023-03-29T23:41:08.485Z,12.97
2023-03-29T23:43:40.607Z,12.97
2023-03-29T23:46:10.634Z,12.96
2023-03-29T23:48:39.408Z,12.95
2023-03-29T23:51:09.966Z,12.94
2023-03-29T23:53:38.329Z,12.93
2023-03-29T23:56:09.239Z,12.91
2023-03-29T23:58:38.973Z,12.91
